KLGU/LGU METAR and TAF weather

Enter ICAO airport designator
Station Type Date Time Source
KLGU METAR 2019/07/20 05:51 UTC NOAA

KLGU 200551Z AUTO 16006KT 10SM CLR 19/08 A2996 RMK AO2 SLP089 T01940083 10333 20178 51020


Station Type Date Time Source
KLGU Decoded METAR 2019/07/20 05:51 UTC NOAA

LOGAN CACHE AIRPORT, UT, United States (KLGU) 41-47N 111-51W 1355M
Jul 20, 2019 - 01:51 AM EDT / 2019.07.20 0551 UTC
Wind: from the SSE (160 degrees) at 7 MPH (6 KT):0
Visibility: 10 mile(s):0
Sky conditions: clear
Temperature: 66.9 F (19.4 C)
Dew Point: 46.9 F (8.3 C)
Relative Humidity: 48%
Pressure (altimeter): 29.96 in. Hg (1014 hPa)
Pressure tendency: 0.06 inches (2.0 hPa) higher than three hours ago
ob: KLGU 200551Z AUTO 16006KT 10SM CLR 19/08 A2996 RMK AO2 SLP089 T01940083 10333 20178 51020
cycle: 6

Station Type Date Time Source
KLGU TAF 2019/07/20 06:30 UTC NOAA

TAF KLGU 200526Z 2006/2106 VRB05KT P6SM SKC

Example: see airport list